Time;durP1;ratioP1;P1;durP2;ratioP2;P2;SDS_P1;SDS_P2;PMS_P1;PMS_P2;Temp;Humidity;BMP_temperature;BMP_pressure;BME280_temperature;BME280_humidity;BME280_pressure;Samples;Min_cycle;Max_cycle;Signal;HPM_P1;HPM_P2
2021/12/19 00:00:52;;;;;;;28.57;8.83;;;;;;;;;;4990399;28;20046;-89
2021/12/19 00:09:41;;;;;;;29.08;9.25;;;;;;;;;;4975266;28;20050;-90
2021/12/19 00:18:03;;;;;;;31.15;10.23;;;;;;;;;;4969877;28;20054;-89
2021/12/19 00:26:39;;;;;;;36.85;10.80;;;;;;;;;;4974456;28;20046;-90
2021/12/19 00:29:09;;;;;;;26.05;10.13;;;;;;;;;;4998208;28;20050;-89
2021/12/19 00:40:44;;;;;;;32.83;10.23;;;;;;;;;;4968457;28;20586;-90
2021/12/19 00:48:59;;;;;;;34.10;10.02;;;;;;;;;;4990546;28;20482;-90
2021/12/19 00:51:36;;;;;;;27.98;9.00;;;;;;;;;;5003838;28;20054;-90
2021/12/19 01:02:58;;;;;;;30.60;10.05;;;;;;;;;;4934479;28;20380;-90
2021/12/19 01:05:47;;;;;;;28.42;9.50;;;;;;;;;;4953802;28;20051;-90
2021/12/19 01:08:21;;;;;;;32.53;11.25;;;;;;;;;;4925046;29;20054;-91
2021/12/19 01:11:27;;;;;;;31.88;11.48;;;;;;;;;;4966663;28;20078;-91
2021/12/19 01:14:00;;;;;;;28.75;8.90;;;;;;;;;;4959597;28;20588;-89
2021/12/19 01:16:55;;;;;;;32.35;10.43;;;;;;;;;;4965122;28;20047;-89
2021/12/19 01:19:26;;;;;;;31.70;10.38;;;;;;;;;;4948345;28;20071;-89
2021/12/19 01:22:16;;;;;;;34.65;11.80;;;;;;;;;;4962266;28;20047;-90
2021/12/19 01:25:05;;;;;;;35.13;10.77;;;;;;;;;;4958689;28;20043;-90
2021/12/19 01:27:43;;;;;;;29.88;9.68;;;;;;;;;;4941046;29;20047;-90
2021/12/19 01:30:37;;;;;;;26.77;9.32;;;;;;;;;;4958043;28;20446;-90
2021/12/19 01:33:25;;;;;;;32.08;9.88;;;;;;;;;;4964883;28;20467;-89
2021/12/19 01:35:56;;;;;;;30.52;9.80;;;;;;;;;;5000344;28;20046;-90
2021/12/19 01:46:46;;;;;;;26.48;9.23;;;;;;;;;;5011429;28;20049;-90
2021/12/19 01:49:31;;;;;;;30.65;9.43;;;;;;;;;;5002330;28;20080;-90
2021/12/19 01:52:14;;;;;;;29.13;9.40;;;;;;;;;;5001790;28;20054;-90
2021/12/19 01:55:04;;;;;;;29.10;9.65;;;;;;;;;;4998169;28;20042;-88
2021/12/19 01:57:37;;;;;;;26.55;9.45;;;;;;;;;;4982829;28;20101;-90
2021/12/19 02:00:31;;;;;;;25.58;9.05;;;;;;;;;;5002839;28;20062;-89
2021/12/19 02:03:05;;;;;;;30.77;9.48;;;;;;;;;;4994491;28;20529;-89
2021/12/19 02:05:39;;;;;;;29.23;9.45;;;;;;;;;;5002261;28;20085;-89
2021/12/19 02:08:17;;;;;;;34.80;10.32;;;;;;;;;;5000976;28;20120;-89
2021/12/19 02:10:49;;;;;;;31.63;10.25;;;;;;;;;;5002053;28;20075;-89
2021/12/19 02:13:22;;;;;;;31.30;9.80;;;;;;;;;;4997599;28;20050;-89
2021/12/19 02:15:56;;;;;;;27.98;10.13;;;;;;;;;;4983111;28;20062;-90
2021/12/19 02:18:42;;;;;;;38.85;10.85;;;;;;;;;;4998596;28;20066;-89
2021/12/19 02:24:08;;;;;;;31.67;8.27;;;;;;;;;;4991846;28;20092;-90
2021/12/19 02:26:39;;;;;;;32.45;10.57;;;;;;;;;;4993601;28;20085;-89
2021/12/19 02:29:13;;;;;;;28.77;10.23;;;;;;;;;;4987375;28;20127;-90
2021/12/19 02:31:45;;;;;;;28.35;9.13;;;;;;;;;;4987813;28;20530;-90
2021/12/19 02:34:23;;;;;;;27.60;8.88;;;;;;;;;;4996895;28;20070;-89
2021/12/19 02:37:23;;;;;;;34.35;9.75;;;;;;;;;;5000807;28;20105;-89
2021/12/19 02:48:41;;;;;;;30.83;9.65;;;;;;;;;;4931068;29;20076;-88
2021/12/19 02:51:46;;;;;;;33.47;10.15;;;;;;;;;;4933328;29;20226;-89
2021/12/19 02:54:20;;;;;;;33.10;9.93;;;;;;;;;;4938370;29;20096;-89
2021/12/19 02:56:49;;;;;;;34.03;10.13;;;;;;;;;;4971202;28;20061;-89
2021/12/19 02:59:19;;;;;;;29.30;10.18;;;;;;;;;;4998365;28;20081;-89
2021/12/19 03:01:52;;;;;;;33.72;10.57;;;;;;;;;;4996934;28;20084;-89
2021/12/19 03:04:23;;;;;;;33.70;10.60;;;;;;;;;;4990689;28;20492;-89
2021/12/19 03:06:52;;;;;;;34.00;10.23;;;;;;;;;;4989889;28;20088;-89
2021/12/19 03:09:41;;;;;;;31.25;10.82;;;;;;;;;;4978452;28;20210;-89
2021/12/19 03:12:25;;;;;;;30.80;8.93;;;;;;;;;;5005311;28;20050;-90
2021/12/19 03:18:00;;;;;;;37.88;10.25;;;;;;;;;;4997095;28;20053;-89
2021/12/19 03:20:29;;;;;;;36.45;10.98;;;;;;;;;;4999683;28;20046;-89
2021/12/19 03:22:59;;;;;;;36.83;10.68;;;;;;;;;;4994289;28;20105;-89
2021/12/19 03:25:30;;;;;;;41.50;11.80;;;;;;;;;;5006088;28;20088;-88
2021/12/19 03:27:59;;;;;;;38.78;10.50;;;;;;;;;;4994293;28;20046;-89
2021/12/19 03:30:29;;;;;;;34.95;11.25;;;;;;;;;;4992074;28;20155;-89
2021/12/19 03:32:58;;;;;;;38.22;10.50;;;;;;;;;;4995562;28;20057;-88
2021/12/19 03:35:29;;;;;;;35.10;11.68;;;;;;;;;;4997935;28;20149;-88
2021/12/19 03:38:07;;;;;;;38.15;11.70;;;;;;;;;;4894256;28;20049;-89
2021/12/19 03:40:40;;;;;;;27.73;9.87;;;;;;;;;;310589;28;10021980;-89
2021/12/19 03:43:10;;;;;;;44.03;12.48;;;;;;;;;;4953731;28;20145;-89
2021/12/19 03:45:40;;;;;;;35.90;10.80;;;;;;;;;;4944158;29;20555;-89
2021/12/19 03:48:12;;;;;;;36.65;10.68;;;;;;;;;;4951459;28;20059;-89
2021/12/19 03:50:43;;;;;;;36.10;11.65;;;;;;;;;;4949274;28;20087;-89
2021/12/19 03:53:11;;;;;;;37.53;10.48;;;;;;;;;;4939254;28;20070;-88
2021/12/19 03:55:42;;;;;;;36.53;11.05;;;;;;;;;;4947916;28;20523;-89
2021/12/19 03:58:11;;;;;;;38.22;11.75;;;;;;;;;;4951164;28;20094;-89
2021/12/19 04:00:42;;;;;;;37.22;11.10;;;;;;;;;;4951782;28;20074;-89
2021/12/19 04:03:17;;;;;;;37.45;12.20;;;;;;;;;;4961565;28;20055;-88
2021/12/19 04:05:46;;;;;;;;;;;;;;;;;;4940197;28;20055;-89
2021/12/19 04:08:15;;;;;;;39.10;11.30;;;;;;;;;;4936897;28;20977;-89
2021/12/19 04:10:46;;;;;;;36.70;10.77;;;;;;;;;;4938463;28;20117;-89
2021/12/19 04:13:15;;;;;;;35.70;10.82;;;;;;;;;;4941593;28;20070;-88
2021/12/19 04:15:43;;;;;;;35.58;11.20;;;;;;;;;;4979015;28;20054;-88
2021/12/19 04:18:12;;;;;;;36.55;11.43;;;;;;;;;;4980040;28;20061;-89
2021/12/19 04:20:40;;;;;;;37.92;11.30;;;;;;;;;;4979569;28;20061;-89
2021/12/19 04:23:10;;;;;;;38.17;9.48;;;;;;;;;;4963191;28;20050;-89
2021/12/19 04:25:41;;;;;;;35.58;10.15;;;;;;;;;;4990747;28;20085;-89
2021/12/19 04:28:12;;;;;;;33.92;9.93;;;;;;;;;;4992315;28;20078;-88
2021/12/19 04:30:41;;;;;;;40.47;10.25;;;;;;;;;;4991055;28;20058;-89
2021/12/19 04:33:11;;;;;;;38.45;10.32;;;;;;;;;;4993684;28;20474;-88
2021/12/19 04:35:42;;;;;;;38.95;10.32;;;;;;;;;;4976094;28;20050;-89
2021/12/19 04:42:02;;;;;;;32.42;9.90;;;;;;;;;;5011696;28;20040;-87
2021/12/19 04:56:21;;;;;;;37.33;10.82;;;;;;;;;;4987774;28;20046;-88
2021/12/19 04:59:11;;;;;;;28.63;9.05;;;;;;;;;;5007713;28;20092;-88
2021/12/19 05:02:11;;;;;;;33.58;9.77;;;;;;;;;;4992612;28;20046;-89
2021/12/19 05:15:56;;;;;;;32.85;10.73;;;;;;;;;;5010699;28;20070;-88
2021/12/19 05:21:33;;;;;;;41.40;10.20;;;;;;;;;;5007596;28;20059;-89
2021/12/19 05:26:53;;;;;;;34.42;11.45;;;;;;;;;;4988915;28;20046;-87
2021/12/19 05:29:28;;;;;;;36.13;9.10;;;;;;;;;;5000524;28;20141;-90
2021/12/19 05:32:11;;;;;;;36.90;11.32;;;;;;;;;;4992354;28;20054;-89
2021/12/19 05:34:57;;;;;;;32.47;8.70;;;;;;;;;;5004235;28;20046;-87
2021/12/19 05:45:50;;;;;;;27.48;9.55;;;;;;;;;;4934193;28;20119;-88
2021/12/19 05:48:26;;;;;;;40.05;11.32;;;;;;;;;;4940688;29;20055;-87
2021/12/19 05:51:00;;;;;;;32.40;10.63;;;;;;;;;;4925435;29;20500;-88
2021/12/19 05:53:44;;;;;;;35.60;12.65;;;;;;;;;;4914767;29;20130;-88
2021/12/19 05:56:17;;;;;;;34.78;10.65;;;;;;;;;;4924671;29;20091;-87
2021/12/19 05:58:59;;;;;;;38.78;10.98;;;;;;;;;;4961115;28;20043;-87
2021/12/19 06:01:39;;;;;;;38.22;11.50;;;;;;;;;;4954994;28;20055;-88
2021/12/19 06:07:13;;;;;;;45.65;11.10;;;;;;;;;;4973026;28;20077;-89
2021/12/19 06:10:06;;;;;;;37.37;9.73;;;;;;;;;;4967840;28;20066;-89
2021/12/19 06:12:41;;;;;;;37.70;10.52;;;;;;;;;;4931029;28;20314;-88
2021/12/19 06:15:16;;;;;;;37.58;11.35;;;;;;;;;;4950052;29;20051;-88
2021/12/19 06:17:57;;;;;;;33.28;10.57;;;;;;;;;;4926596;29;20047;-89
2021/12/19 06:20:47;;;;;;;36.97;11.23;;;;;;;;;;4935038;29;20066;-87
2021/12/19 06:23:45;;;;;;;38.08;11.00;;;;;;;;;;4937307;29;20055;-88
2021/12/19 06:26:18;;;;;;;37.65;11.82;;;;;;;;;;4955529;29;20066;-89
2021/12/19 06:28:55;;;;;;;36.80;10.20;;;;;;;;;;4958334;28;20078;-88
2021/12/19 06:31:23;;;;;;;38.40;9.82;;;;;;;;;;4951887;28;20063;-88
2021/12/19 06:33:52;;;;;;;35.13;10.10;;;;;;;;;;4958167;28;20083;-88
2021/12/19 06:36:27;;;;;;;34.05;9.70;;;;;;;;;;4962837;28;20050;-87
2021/12/19 06:39:12;;;;;;;37.50;11.80;;;;;;;;;;4983137;28;20065;-87
2021/12/19 06:41:53;;;;;;;33.55;9.68;;;;;;;;;;4990469;28;20069;-89
2021/12/19 06:44:28;;;;;;;38.10;12.20;;;;;;;;;;4984505;28;20046;-88
2021/12/19 06:47:00;;;;;;;33.38;10.95;;;;;;;;;;4982614;28;20043;-88
2021/12/19 06:49:29;;;;;;;36.17;12.30;;;;;;;;;;4980461;28;20055;-89
2021/12/19 06:52:05;;;;;;;36.05;11.32;;;;;;;;;;4981178;28;20063;-88
2021/12/19 06:54:51;;;;;;;31.35;11.02;;;;;;;;;;4966683;28;20047;-88
2021/12/19 06:57:21;;;;;;;36.13;11.15;;;;;;;;;;4981062;28;20098;-88
2021/12/19 06:59:51;;;;;;;37.00;10.55;;;;;;;;;;4984900;28;20038;-89
2021/12/19 07:02:34;;;;;;;38.03;10.88;;;;;;;;;;4983742;28;20054;-89
2021/12/19 07:05:09;;;;;;;39.58;11.65;;;;;;;;;;4985615;28;20047;-90
2021/12/19 07:07:39;;;;;;;30.55;8.73;;;;;;;;;;4992477;28;20062;-89
2021/12/19 07:10:11;;;;;;;28.85;9.85;;;;;;;;;;5000718;28;20054;-89
2021/12/19 07:13:08;;;;;;;37.42;10.63;;;;;;;;;;5003589;28;20050;-88
2021/12/19 07:15:41;;;;;;;30.52;10.65;;;;;;;;;;5002048;28;20105;-88
2021/12/19 07:18:13;;;;;;;37.95;11.15;;;;;;;;;;5003002;28;20488;-89
2021/12/19 07:20:51;;;;;;;39.08;11.48;;;;;;;;;;4996668;28;20101;-89
2021/12/19 07:23:24;;;;;;;41.22;11.63;;;;;;;;;;4986389;28;20050;-89
2021/12/19 07:25:58;;;;;;;39.90;11.95;;;;;;;;;;4986093;28;20042;-88
2021/12/19 07:28:33;;;;;;;32.25;10.07;;;;;;;;;;4986983;28;20134;-88
2021/12/19 07:31:07;;;;;;;30.90;8.98;;;;;;;;;;5000128;28;20560;-88
2021/12/19 07:33:36;;;;;;;28.40;8.80;;;;;;;;;;4981535;28;20030;-87
2021/12/19 07:36:09;;;;;;;26.23;7.30;;;;;;;;;;5001308;28;20133;-87
2021/12/19 07:41:26;;;;;;;22.92;8.07;;;;;;;;;;5003285;28;20390;-89
2021/12/19 07:44:07;;;;;;;25.67;8.55;;;;;;;;;;5000134;28;20042;-88
2021/12/19 07:46:40;;;;;;;32.25;9.60;;;;;;;;;;4999352;28;20137;-88
2021/12/19 07:49:09;;;;;;;24.33;8.30;;;;;;;;;;5000940;28;20046;-87
2021/12/19 07:51:44;;;;;;;25.15;7.68;;;;;;;;;;5002212;28;20581;-89
2021/12/19 07:54:16;;;;;;;24.08;8.13;;;;;;;;;;5003474;28;20050;-90
2021/12/19 07:56:48;;;;;;;25.00;7.78;;;;;;;;;;5000177;28;20050;-89
2021/12/19 07:59:19;;;;;;;27.20;8.85;;;;;;;;;;5002060;28;20058;-88
2021/12/19 08:01:54;;;;;;;28.75;9.35;;;;;;;;;;4994516;28;20050;-89
2021/12/19 08:04:27;;;;;;;31.88;9.82;;;;;;;;;;4997442;28;20046;-89
2021/12/19 08:06:58;;;;;;;25.85;9.98;;;;;;;;;;4996957;28;20062;-85
2021/12/19 08:09:38;;;;;;;26.83;9.27;;;;;;;;;;4994476;28;20042;-85
2021/12/19 08:12:08;;;;;;;28.23;9.43;;;;;;;;;;4992642;28;20113;-85
2021/12/19 08:14:37;;;;;;;30.73;8.60;;;;;;;;;;4994467;28;20054;-85
2021/12/19 08:17:07;;;;;;;30.42;10.38;;;;;;;;;;4996492;28;20070;-87
2021/12/19 08:19:38;;;;;;;26.35;9.13;;;;;;;;;;4996549;28;20053;-87
2021/12/19 08:22:08;;;;;;;28.67;9.27;;;;;;;;;;4995863;28;20486;-87
2021/12/19 08:24:42;;;;;;;24.80;9.32;;;;;;;;;;4991943;28;20050;-85
2021/12/19 08:27:15;;;;;;;26.40;10.38;;;;;;;;;;5004004;28;20054;-86
2021/12/19 08:29:48;;;;;;;25.98;9.63;;;;;;;;;;4996433;28;20049;-87
2021/12/19 08:32:17;;;;;;;20.95;8.43;;;;;;;;;;4994514;28;20121;-88
2021/12/19 08:34:46;;;;;;;20.50;7.03;;;;;;;;;;4995821;28;20050;-85
2021/12/19 08:37:16;;;;;;;21.80;7.88;;;;;;;;;;5000157;28;20501;-86
2021/12/19 08:39:47;;;;;;;23.40;7.90;;;;;;;;;;4977581;28;20050;-87
2021/12/19 08:42:32;;;;;;;24.58;8.50;;;;;;;;;;5000584;28;20054;-88
2021/12/19 08:45:15;;;;;;;25.67;8.48;;;;;;;;;;5000993;28;20054;-90
2021/12/19 08:47:49;;;;;;;27.92;8.75;;;;;;;;;;4992298;28;20050;-90
2021/12/19 08:50:27;;;;;;;23.52;8.55;;;;;;;;;;4991679;28;20068;-89
2021/12/19 08:53:06;;;;;;;26.63;7.97;;;;;;;;;;4978811;28;20434;-87
2021/12/19 08:55:40;;;;;;;25.50;8.68;;;;;;;;;;4993130;28;20104;-89
2021/12/19 08:58:10;;;;;;;23.65;8.73;;;;;;;;;;4991389;28;20594;-88
2021/12/19 09:00:42;;;;;;;26.23;8.07;;;;;;;;;;4980193;28;20890;-88
2021/12/19 09:03:18;;;;;;;21.10;7.75;;;;;;;;;;4994653;28;20058;-87
2021/12/19 09:05:48;;;;;;;24.60;9.02;;;;;;;;;;4993879;28;20042;-86
2021/12/19 09:08:26;;;;;;;23.38;8.10;;;;;;;;;;4975408;28;20426;-86
2021/12/19 09:10:56;;;;;;;27.90;9.15;;;;;;;;;;4975987;28;20046;-86
2021/12/19 09:13:29;;;;;;;26.55;8.15;;;;;;;;;;4975744;28;20073;-86
2021/12/19 09:15:58;;;;;;;23.40;8.07;;;;;;;;;;4976791;28;20097;-85
2021/12/19 09:18:29;;;;;;;20.42;6.93;;;;;;;;;;4979486;28;20093;-86
2021/12/19 09:20:59;;;;;;;18.50;7.32;;;;;;;;;;4979523;28;20078;-86
2021/12/19 09:23:32;;;;;;;24.70;7.78;;;;;;;;;;4978011;28;20078;-87
2021/12/19 09:26:09;;;;;;;25.08;8.50;;;;;;;;;;4983952;28;20050;-86
2021/12/19 09:28:44;;;;;;;23.35;8.20;;;;;;;;;;4976659;28;20053;-88
2021/12/19 09:31:16;;;;;;;23.70;8.80;;;;;;;;;;4986253;28;20451;-86
2021/12/19 09:33:50;;;;;;;29.35;9.25;;;;;;;;;;4974098;28;20043;-87
2021/12/19 09:36:24;;;;;;;22.48;8.68;;;;;;;;;;4973270;28;20070;-86
2021/12/19 09:38:57;;;;;;;23.23;9.00;;;;;;;;;;4975740;28;20054;-87
2021/12/19 09:41:32;;;;;;;28.13;10.50;;;;;;;;;;4966192;28;20532;-86
2021/12/19 09:44:04;;;;;;;28.00;9.20;;;;;;;;;;4969522;28;20085;-87
2021/12/19 09:46:49;;;;;;;24.33;9.35;;;;;;;;;;4973752;28;20561;-87
2021/12/19 09:49:23;;;;;;;24.10;9.38;;;;;;;;;;4974309;28;20109;-86
2021/12/19 09:51:56;;;;;;;26.88;9.68;;;;;;;;;;4971968;28;20062;-85
2021/12/19 09:54:27;;;;;;;22.77;8.30;;;;;;;;;;4973311;28;20050;-85
2021/12/19 09:56:59;;;;;;;32.05;10.15;;;;;;;;;;4974435;28;20047;-85
2021/12/19 09:59:36;;;;;;;26.98;9.45;;;;;;;;;;4972879;28;20053;-87
2021/12/19 10:02:07;;;;;;;29.23;10.15;;;;;;;;;;4976987;28;20197;-86
2021/12/19 10:04:42;;;;;;;23.27;9.02;;;;;;;;;;4923363;28;20051;-86
2021/12/19 10:07:17;;;;;;;22.92;9.35;;;;;;;;;;4983396;28;20055;-86
2021/12/19 10:10:01;;;;;;;25.50;10.57;;;;;;;;;;4992744;28;20058;-86
2021/12/19 10:12:39;;;;;;;28.20;9.82;;;;;;;;;;4988445;28;20073;-87
2021/12/19 10:15:12;;;;;;;22.17;8.25;;;;;;;;;;5004824;28;20057;-85
2021/12/19 10:17:42;;;;;;;23.83;9.07;;;;;;;;;;4979095;28;20051;-86
2021/12/19 10:20:15;;;;;;;20.40;9.15;;;;;;;;;;4997035;28;20081;-87
2021/12/19 10:22:46;;;;;;;23.10;9.65;;;;;;;;;;4997230;28;20106;-88
2021/12/19 10:25:27;;;;;;;24.33;8.98;;;;;;;;;;4992264;28;20047;-86
2021/12/19 10:27:57;;;;;;;25.83;8.98;;;;;;;;;;4995163;28;20074;-86
2021/12/19 10:30:34;;;;;;;24.02;8.50;;;;;;;;;;4994691;28;20050;-86
2021/12/19 10:33:09;;;;;;;21.20;7.78;;;;;;;;;;4997367;28;20049;-86
2021/12/19 10:35:39;;;;;;;26.58;8.15;;;;;;;;;;5004718;28;20050;-86
2021/12/19 10:38:18;;;;;;;22.00;8.18;;;;;;;;;;4995257;28;20417;-87
2021/12/19 10:40:55;;;;;;;25.83;9.35;;;;;;;;;;4994808;28;20056;-86
2021/12/19 10:43:28;;;;;;;20.65;7.43;;;;;;;;;;4997863;28;20061;-85
2021/12/19 10:46:01;;;;;;;20.85;7.80;;;;;;;;;;4994104;28;20383;-86
2021/12/19 10:48:37;;;;;;;22.15;8.05;;;;;;;;;;4993992;28;20494;-86
2021/12/19 10:51:10;;;;;;;24.90;8.52;;;;;;;;;;4991452;28;20050;-85
2021/12/19 10:53:43;;;;;;;23.17;9.20;;;;;;;;;;4992376;28;20046;-87
2021/12/19 10:56:17;;;;;;;24.67;8.77;;;;;;;;;;4983664;28;20075;-88
2021/12/19 10:58:56;;;;;;;26.38;8.93;;;;;;;;;;4991776;28;20046;-87
2021/12/19 11:01:33;;;;;;;26.58;9.80;;;;;;;;;;4960656;28;20051;-87
2021/12/19 11:04:05;;;;;;;26.13;9.18;;;;;;;;;;4936966;28;20074;-86
2021/12/19 11:06:45;;;;;;;22.92;9.45;;;;;;;;;;4940898;28;20287;-87
2021/12/19 11:09:20;;;;;;;27.15;9.68;;;;;;;;;;4953821;28;20055;-88
2021/12/19 11:11:57;;;;;;;28.17;9.57;;;;;;;;;;4935229;28;20082;-89
2021/12/19 11:14:44;;;;;;;21.83;8.20;;;;;;;;;;4937607;29;20123;-88
2021/12/19 11:17:27;;;;;;;23.08;8.13;;;;;;;;;;4939089;29;20080;-88
2021/12/19 11:19:59;;;;;;;23.95;7.63;;;;;;;;;;4930794;29;20694;-88
2021/12/19 11:22:44;;;;;;;25.67;7.88;;;;;;;;;;4932815;29;20055;-88
2021/12/19 11:25:15;;;;;;;27.80;8.07;;;;;;;;;;4933473;29;20084;-88
2021/12/19 11:27:49;;;;;;;18.10;8.93;;;;;;;;;;4961598;28;20051;-88
2021/12/19 11:30:32;;;;;;;25.95;9.50;;;;;;;;;;4961649;28;20066;-88
2021/12/19 11:33:16;;;;;;;24.70;8.23;;;;;;;;;;4975652;28;20114;-87
2021/12/19 11:35:48;;;;;;;29.55;8.85;;;;;;;;;;4975621;28;20615;-88
2021/12/19 11:38:21;;;;;;;21.17;8.63;;;;;;;;;;4975721;28;20086;-86
2021/12/19 11:43:37;;;;;;;26.33;9.45;;;;;;;;;;4978618;28;20046;-88
2021/12/19 11:46:16;;;;;;;23.02;8.77;;;;;;;;;;4974488;28;20055;-90
2021/12/19 11:52:23;;;;;;;21.45;8.35;;;;;;;;;;4975715;28;20521;-89
2021/12/19 11:55:13;;;;;;;22.05;9.30;;;;;;;;;;4977139;28;20521;-89
2021/12/19 11:58:08;;;;;;;18.88;7.57;;;;;;;;;;4984941;28;20055;-87
2021/12/19 12:00:43;;;;;;;21.17;8.15;;;;;;;;;;4960825;28;20043;-87
2021/12/19 12:03:24;;;;;;;22.08;7.60;;;;;;;;;;4972403;28;20055;-86
2021/12/19 12:05:57;;;;;;;18.70;8.07;;;;;;;;;;4971473;28;20094;-88
2021/12/19 12:08:30;;;;;;;23.77;8.07;;;;;;;;;;4992485;28;20138;-88
2021/12/19 12:11:12;;;;;;;22.30;8.85;;;;;;;;;;4997051;28;20052;-87
2021/12/19 12:13:43;;;;;;;26.63;9.25;;;;;;;;;;4980410;28;20581;-87
2021/12/19 12:16:44;;;;;;;22.52;9.07;;;;;;;;;;4997689;28;20097;-88
2021/12/19 12:19:38;;;;;;;23.50;7.82;;;;;;;;;;4995921;28;20053;-89
2021/12/19 12:22:39;;;;;;;24.90;8.32;;;;;;;;;;4993680;28;20081;-88
2021/12/19 12:25:15;;;;;;;27.10;9.88;;;;;;;;;;5015105;28;20060;-88
2021/12/19 12:27:46;;;;;;;28.83;8.98;;;;;;;;;;4995389;28;20050;-87
2021/12/19 12:30:26;;;;;;;19.23;7.57;;;;;;;;;;4980330;28;20070;-87
2021/12/19 12:35:49;;;;;;;30.95;9.07;;;;;;;;;;5002110;28;20050;-86
2021/12/19 12:38:19;;;;;;;21.45;8.35;;;;;;;;;;5000670;28;20057;-88
2021/12/19 12:40:54;;;;;;;23.33;8.93;;;;;;;;;;5011135;28;20105;-87
2021/12/19 12:43:26;;;;;;;29.88;8.20;;;;;;;;;;5003177;28;20461;-88
2021/12/19 12:46:11;;;;;;;24.83;8.55;;;;;;;;;;4996789;28;20049;-89
2021/12/19 12:48:51;;;;;;;21.85;8.65;;;;;;;;;;4995387;28;20054;-87
2021/12/19 12:51:38;;;;;;;29.27;9.02;;;;;;;;;;4967379;28;20050;-90
2021/12/19 12:54:09;;;;;;;23.77;9.32;;;;;;;;;;4990744;28;20050;-89
2021/12/19 12:56:43;;;;;;;20.33;8.27;;;;;;;;;;4992580;28;20148;-86
2021/12/19 12:59:16;;;;;;;26.17;10.07;;;;;;;;;;4993257;28;20050;-88
2021/12/19 13:01:49;;;;;;;23.80;9.40;;;;;;;;;;4998561;28;20061;-87
2021/12/19 13:04:25;;;;;;;19.90;8.00;;;;;;;;;;4990999;28;20077;-87
2021/12/19 13:06:58;;;;;;;21.52;8.18;;;;;;;;;;4994466;28;20613;-88
2021/12/19 13:09:33;;;;;;;29.85;10.13;;;;;;;;;;4976995;28;20447;-90
2021/12/19 13:12:20;;;;;;;20.23;8.38;;;;;;;;;;4972084;28;20540;-88
2021/12/19 13:14:59;;;;;;;19.05;8.07;;;;;;;;;;4974757;28;20153;-88
2021/12/19 13:17:39;;;;;;;27.52;8.98;;;;;;;;;;4976686;28;20053;-91
2021/12/19 13:20:22;;;;;;;22.60;9.02;;;;;;;;;;4971726;28;20530;-92
2021/12/19 13:23:11;;;;;;;22.85;8.50;;;;;;;;;;4943907;28;20039;-88
2021/12/19 13:25:57;;;;;;;17.02;7.32;;;;;;;;;;4953835;28;20047;-90
2021/12/19 13:28:29;;;;;;;22.83;8.35;;;;;;;;;;4940784;28;20062;-88
2021/12/19 13:31:00;;;;;;;21.15;7.18;;;;;;;;;;4940431;29;20047;-90
2021/12/19 13:33:31;;;;;;;23.20;7.78;;;;;;;;;;4949377;28;20042;-89
2021/12/19 13:36:02;;;;;;;17.17;7.07;;;;;;;;;;4945753;28;20102;-87
2021/12/19 13:38:34;;;;;;;20.02;7.63;;;;;;;;;;4947737;29;20130;-89
2021/12/19 13:41:10;;;;;;;22.38;7.90;;;;;;;;;;4952954;29;20047;-90
2021/12/19 13:43:54;;;;;;;18.40;7.32;;;;;;;;;;4955541;28;20051;-88
2021/12/19 13:49:22;;;;;;;22.88;7.20;;;;;;;;;;4962874;28;20050;-90
2021/12/19 13:52:05;;;;;;;23.63;7.65;;;;;;;;;;4958131;28;20051;-89
2021/12/19 13:54:40;;;;;;;22.95;7.60;;;;;;;;;;4959287;28;20059;-89
2021/12/19 13:57:20;;;;;;;21.30;7.40;;;;;;;;;;4979320;28;20066;-89
2021/12/19 13:59:49;;;;;;;18.92;6.65;;;;;;;;;;4962113;28;20094;-89
2021/12/19 14:02:19;;;;;;;19.15;6.90;;;;;;;;;;4972927;28;20055;-87
2021/12/19 14:04:48;;;;;;;16.42;7.05;;;;;;;;;;4970640;28;20054;-87
2021/12/19 14:07:20;;;;;;;21.40;7.47;;;;;;;;;;4972889;28;20061;-89
2021/12/19 14:10:02;;;;;;;18.58;7.82;;;;;;;;;;4973691;28;20082;-89
2021/12/19 14:12:54;;;;;;;21.60;7.55;;;;;;;;;;4990585;28;20050;-89
2021/12/19 14:15:23;;;;;;;23.60;7.35;;;;;;;;;;4993231;28;20061;-89
2021/12/19 14:17:52;;;;;;;20.55;6.78;;;;;;;;;;4992820;28;20050;-88
2021/12/19 14:20:34;;;;;;;27.60;8.32;;;;;;;;;;4990463;28;20157;-89
2021/12/19 14:23:24;;;;;;;21.80;6.45;;;;;;;;;;4992102;28;20082;-88
2021/12/19 14:25:57;;;;;;;17.70;6.97;;;;;;;;;;4985615;28;20053;-89
2021/12/19 14:28:32;;;;;;;26.67;7.30;;;;;;;;;;4990492;28;20057;-88
2021/12/19 14:31:06;;;;;;;21.33;6.85;;;;;;;;;;4990475;28;20110;-89
2021/12/19 14:33:36;;;;;;;21.92;7.68;;;;;;;;;;4991409;28;20557;-89
2021/12/19 14:36:09;;;;;;;19.35;6.78;;;;;;;;;;4992405;28;20058;-89
2021/12/19 14:38:40;;;;;;;19.80;7.15;;;;;;;;;;4990242;28;20441;-89
2021/12/19 14:41:12;;;;;;;18.67;7.80;;;;;;;;;;4985420;28;20055;-89
2021/12/19 14:43:41;;;;;;;15.88;7.50;;;;;;;;;;4992821;28;20118;-89
2021/12/19 14:46:11;;;;;;;16.13;7.00;;;;;;;;;;4993824;28;20541;-89
2021/12/19 14:48:41;;;;;;;18.33;7.57;;;;;;;;;;4994947;28;20074;-89
2021/12/19 14:51:11;;;;;;;24.17;8.32;;;;;;;;;;4990724;28;20042;-89
2021/12/19 14:53:42;;;;;;;15.63;6.78;;;;;;;;;;4989144;28;20050;-89
2021/12/19 14:56:15;;;;;;;26.08;7.93;;;;;;;;;;4989518;28;20050;-89
2021/12/19 14:58:45;;;;;;;18.33;7.97;;;;;;;;;;4990080;28;20051;-89
2021/12/19 15:01:16;;;;;;;19.75;6.95;;;;;;;;;;4977537;28;20078;-89
2021/12/19 15:03:49;;;;;;;26.38;7.95;;;;;;;;;;4998563;28;20115;-89
2021/12/19 15:06:23;;;;;;;20.60;7.80;;;;;;;;;;4996975;28;20085;-89
2021/12/19 15:08:52;;;;;;;23.15;8.32;;;;;;;;;;4997945;28;20060;-89
2021/12/19 15:11:24;;;;;;;24.50;8.10;;;;;;;;;;4996470;28;20046;-89
2021/12/19 15:13:55;;;;;;;20.45;9.00;;;;;;;;;;4995565;28;20054;-88
2021/12/19 15:16:28;;;;;;;26.58;9.23;;;;;;;;;;4993311;28;20133;-89
2021/12/19 15:19:00;;;;;;;21.40;8.27;;;;;;;;;;4997487;28;20073;-89
2021/12/19 15:21:29;;;;;;;22.27;7.95;;;;;;;;;;4995881;28;20140;-90
2021/12/19 15:23:59;;;;;;;21.52;7.88;;;;;;;;;;4997981;28;20141;-89
2021/12/19 15:26:34;;;;;;;24.98;9.93;;;;;;;;;;4997502;28;20409;-88
2021/12/19 15:29:06;;;;;;;25.42;7.97;;;;;;;;;;4998420;28;20133;-89
2021/12/19 15:31:38;;;;;;;20.48;8.30;;;;;;;;;;4996357;28;20107;-89
2021/12/19 15:34:08;;;;;;;26.50;9.43;;;;;;;;;;4997266;28;20054;-89
2021/12/19 15:36:39;;;;;;;22.55;8.75;;;;;;;;;;4997329;28;20064;-89
2021/12/19 15:39:09;;;;;;;21.45;7.40;;;;;;;;;;4997744;28;20057;-88
2021/12/19 15:41:42;;;;;;;16.98;8.02;;;;;;;;;;4995741;28;20093;-88
2021/12/19 15:44:15;;;;;;;17.67;7.10;;;;;;;;;;4997784;28;20050;-89
2021/12/19 15:46:44;;;;;;;19.05;7.47;;;;;;;;;;4997486;28;20104;-87
2021/12/19 15:49:14;;;;;;;20.00;7.20;;;;;;;;;;4994588;28;20078;-87
2021/12/19 15:51:54;;;;;;;16.17;6.70;;;;;;;;;;4990663;28;20128;-87
2021/12/19 15:54:35;;;;;;;17.27;6.15;;;;;;;;;;4990789;28;20138;-86
2021/12/19 15:57:14;;;;;;;21.95;7.13;;;;;;;;;;4997615;28;20157;-89
2021/12/19 15:59:45;;;;;;;16.77;5.75;;;;;;;;;;4995401;28;20108;-89
2021/12/19 16:02:18;;;;;;;16.58;5.88;;;;;;;;;;4999610;28;20505;-88
2021/12/19 16:04:48;;;;;;;18.60;6.65;;;;;;;;;;4987316;28;20471;-88
2021/12/19 16:07:18;;;;;;;19.67;6.55;;;;;;;;;;4997139;28;20532;-88
2021/12/19 16:09:48;;;;;;;18.52;6.50;;;;;;;;;;5000148;28;20058;-88
2021/12/19 16:12:20;;;;;;;16.73;5.93;;;;;;;;;;4992814;28;20092;-89
2021/12/19 16:14:49;;;;;;;17.83;5.32;;;;;;;;;;4993141;28;20054;-87
2021/12/19 16:17:19;;;;;;;14.07;5.68;;;;;;;;;;4994573;28;20054;-88
2021/12/19 16:19:58;;;;;;;14.35;5.68;;;;;;;;;;4993116;28;20042;-88
2021/12/19 16:22:27;;;;;;;17.35;6.13;;;;;;;;;;4992781;28;20082;-88
2021/12/19 16:24:57;;;;;;;19.65;5.85;;;;;;;;;;4990817;28;20054;-88
2021/12/19 16:27:28;;;;;;;13.23;5.22;;;;;;;;;;4993453;28;20062;-88
2021/12/19 16:30:00;;;;;;;17.55;5.72;;;;;;;;;;4993598;28;20057;-88
2021/12/19 16:32:30;;;;;;;18.02;6.90;;;;;;;;;;4994430;28;20488;-87
2021/12/19 16:35:02;;;;;;;14.60;5.72;;;;;;;;;;4994107;28;20421;-88
2021/12/19 16:37:39;;;;;;;16.80;5.63;;;;;;;;;;4993050;28;20054;-87
2021/12/19 16:40:11;;;;;;;16.58;5.75;;;;;;;;;;4989880;28;20050;-87
2021/12/19 16:45:46;;;;;;;18.02;6.70;;;;;;;;;;4991621;28;20050;-89
2021/12/19 16:48:16;;;;;;;16.55;6.63;;;;;;;;;;4994179;28;20062;-87
2021/12/19 16:50:46;;;;;;;18.38;6.32;;;;;;;;;;4991084;28;20081;-88
2021/12/19 16:53:21;;;;;;;17.65;6.82;;;;;;;;;;4988478;28;20049;-88
2021/12/19 16:55:54;;;;;;;17.45;6.80;;;;;;;;;;4993852;28;20173;-89
2021/12/19 16:58:28;;;;;;;19.50;6.82;;;;;;;;;;4980179;28;20046;-88
2021/12/19 17:01:01;;;;;;;16.73;6.30;;;;;;;;;;4992808;28;20536;-89
2021/12/19 17:03:48;;;;;;;17.17;6.30;;;;;;;;;;4991580;28;20064;-89
2021/12/19 17:06:26;;;;;;;17.52;6.97;;;;;;;;;;4985049;28;20054;-88
2021/12/19 17:08:56;;;;;;;17.10;6.95;;;;;;;;;;4994150;28;20068;-89
2021/12/19 17:11:48;;;;;;;16.55;6.00;;;;;;;;;;4992978;28;20109;-88
2021/12/19 17:14:23;;;;;;;15.43;5.95;;;;;;;;;;4983518;28;20050;-89
2021/12/19 17:16:59;;;;;;;15.10;6.45;;;;;;;;;;4993689;28;20046;-89
2021/12/19 17:19:29;;;;;;;16.58;6.47;;;;;;;;;;4992597;28;20120;-90